Time;durP1;ratioP1;P1;durP2;ratioP2;P2;SDS_P1;SDS_P2;PMS_P1;PMS_P2;Temp;Humidity;BMP_temperature;BMP_pressure;BME280_temperature;BME280_humidity;BME280_pressure;Samples;Min_cycle;Max_cycle;Signal;HPM_P1;HPM_P2
2022/05/04 00:01:36;;;;;;;3.15;1.90;;;;;;;12.36;44.57;98998.51;1686579;85;21486;-71
2022/05/04 00:04:03;;;;;;;4.10;2.22;;;;;;;12.36;44.72;98997.68;1686363;85;21016;-72
2022/05/04 00:06:31;;;;;;;3.98;2.30;;;;;;;12.34;44.77;99005.05;1685947;85;21509;-72
2022/05/04 00:08:57;;;;;;;3.85;2.92;;;;;;;12.32;44.85;99009.27;1686334;85;21159;-72
2022/05/04 00:11:24;;;;;;;2.90;2.70;;;;;;;12.30;44.88;99011.30;1686232;85;20909;-73
2022/05/04 00:13:50;;;;;;;2.50;2.30;;;;;;;12.32;44.92;99007.92;1686397;85;21071;-73
2022/05/04 00:16:17;;;;;;;4.33;3.72;;;;;;;12.30;45.05;99007.80;1685856;85;20955;-73
2022/05/04 00:18:43;;;;;;;4.33;3.92;;;;;;;12.28;45.24;99012.48;1686357;85;20968;-72
2022/05/04 00:21:10;;;;;;;6.33;4.75;;;;;;;12.25;45.42;99015.56;1686578;85;21215;-73
2022/05/04 00:23:36;;;;;;;5.58;4.75;;;;;;;12.23;45.57;99014.91;1686275;85;21529;-70
2022/05/04 00:26:03;;;;;;;3.00;2.75;;;;;;;12.22;45.69;99020.77;1685786;84;21138;-69
2022/05/04 00:28:30;;;;;;;2.70;2.50;;;;;;;12.20;45.87;99015.31;1685582;85;20960;-72
2022/05/04 00:30:56;;;;;;;3.20;2.90;;;;;;;12.17;46.01;99019.19;1686335;85;21034;-70
2022/05/04 00:33:23;;;;;;;3.17;2.87;;;;;;;12.17;46.09;99019.69;1686439;85;21171;-72
2022/05/04 00:35:49;;;;;;;4.95;3.70;;;;;;;12.14;46.23;99021.40;1685880;85;20933;-69
2022/05/04 00:38:16;;;;;;;6.37;5.78;;;;;;;12.12;46.37;99021.57;1680114;85;21169;-68
2022/05/04 00:40:43;;;;;;;7.12;6.42;;;;;;;12.11;46.47;99026.61;1685219;85;21502;-73
2022/05/04 00:43:23;;;;;;;6.95;6.37;;;;;;;12.09;46.49;99025.98;1666944;84;20916;-72
2022/05/04 00:45:50;;;;;;;5.78;5.25;;;;;;;12.06;46.73;99029.02;1659693;85;21175;-69
2022/05/04 00:48:16;;;;;;;3.67;3.37;;;;;;;12.03;46.83;99036.06;1686553;85;20928;-68
2022/05/04 00:50:44;;;;;;;2.83;2.62;;;;;;;11.98;46.98;99038.47;1686046;85;21553;-70
2022/05/04 00:53:11;;;;;;;6.67;2.22;;;;;;;11.96;47.04;99035.68;1686409;85;21062;-68
2022/05/04 00:55:38;;;;;;;2.83;2.10;;;;;;;11.95;47.09;99038.02;1686434;85;21059;-68
2022/05/04 01:00:51;;;;;;;1.62;1.52;;;;;;;11.86;47.45;99044.00;1686060;85;20928;-69
2022/05/04 01:03:18;;;;;;;4.87;1.77;;;;;;;11.81;47.60;99042.91;1686341;85;20928;-70
2022/05/04 01:05:45;;;;;;;2.67;1.42;;;;;;;11.74;47.77;99044.98;1686465;85;21067;-72
2022/05/04 01:08:12;;;;;;;1.82;1.50;;;;;;;11.71;47.97;99047.19;1685511;85;20877;-67
2022/05/04 01:10:38;;;;;;;1.60;1.50;;;;;;;11.67;48.14;99052.05;1685838;85;21482;-71
2022/05/04 01:13:05;;;;;;;1.80;1.67;;;;;;;11.64;48.20;99056.92;1686443;85;21494;-73
2022/05/04 01:15:32;;;;;;;1.62;1.35;;;;;;;11.62;48.32;99058.95;1686372;85;21003;-72
2022/05/04 01:17:59;;;;;;;3.12;1.50;;;;;;;11.59;48.52;99049.99;1671452;85;21091;-71
2022/05/04 01:20:25;;;;;;;1.95;1.40;;;;;;;11.55;48.55;99045.53;1665609;85;21360;-71
2022/05/04 01:22:52;;;;;;;1.37;1.20;;;;;;;11.52;48.50;99047.23;1685844;85;21274;-71
2022/05/04 01:25:19;;;;;;;1.25;1.07;;;;;;;11.50;48.48;99047.10;1686306;85;20971;-69
2022/05/04 01:27:45;;;;;;;3.87;1.67;;;;;;;11.48;48.50;99045.14;1657928;85;21051;-68
2022/05/04 01:30:13;;;;;;;2.42;2.22;;;;;;;11.46;48.67;99047.17;1685592;85;21060;-71
2022/05/04 01:32:41;;;;;;;2.42;2.22;;;;;;;11.42;48.73;99045.38;1682769;85;20869;-73
2022/05/04 01:35:09;;;;;;;4.53;2.77;;;;;;;11.39;48.91;99047.60;1686414;84;21166;-72
2022/05/04 01:37:35;;;;;;;2.83;2.58;;;;;;;11.36;49.12;99058.13;1686610;85;20952;-71
2022/05/04 01:40:04;;;;;;;1.80;1.70;;;;;;;11.34;49.27;99053.99;1686354;84;21549;-72
2022/05/04 01:42:31;;;;;;;4.75;1.80;;;;;;;11.33;49.44;99058.98;1686373;85;20928;-69
2022/05/04 01:44:57;;;;;;;3.08;1.62;;;;;;;11.30;49.62;99057.52;1686528;84;21594;-71
2022/05/04 01:47:24;;;;;;;1.87;1.62;;;;;;;11.28;49.74;99062.70;1686476;85;21088;-72
2022/05/04 01:49:51;;;;;;;1.98;1.55;;;;;;;11.24;49.88;99060.11;1686394;85;20975;-73
2022/05/04 01:52:17;;;;;;;1.95;1.57;;;;;;;11.22;50.03;99062.11;1686051;85;21094;-72
2022/05/04 01:54:44;;;;;;;2.42;1.32;;;;;;;11.20;50.10;99063.64;1686383;84;21572;-69
2022/05/04 01:57:11;;;;;;;3.35;1.47;;;;;;;11.18;50.18;99063.50;1686579;85;21072;-70
2022/05/04 01:59:38;;;;;;;2.33;1.60;;;;;;;11.14;50.32;99067.85;1686270;85;21452;-67
2022/05/04 02:02:07;;;;;;;1.77;1.55;;;;;;;11.11;50.48;99073.54;1674418;85;21508;-68
2022/05/04 02:04:36;;;;;;;2.12;1.45;;;;;;;11.09;50.59;99074.23;1679630;85;21000;-70
2022/05/04 02:07:02;;;;;;;3.30;1.22;;;;;;;11.06;50.62;99074.59;1686534;85;20995;-71
2022/05/04 02:09:30;;;;;;;2.70;1.60;;;;;;;11.02;50.79;99070.66;1686496;84;21079;-72
2022/05/04 02:11:56;;;;;;;2.60;1.57;;;;;;;11.01;50.90;99072.98;1686509;85;21177;-71
2022/05/04 02:14:25;;;;;;;4.05;1.77;;;;;;;10.97;51.15;99073.05;1684541;85;21002;-72
2022/05/04 02:16:51;;;;;;;1.82;1.45;;;;;;;10.95;51.26;99080.89;1686395;85;20913;-71
2022/05/04 02:19:18;;;;;;;1.95;1.70;;;;;;;10.91;51.40;99085.74;1686529;85;20980;-69
2022/05/04 02:21:45;;;;;;;1.45;1.35;;;;;;;10.90;51.51;99083.24;1685038;84;21577;-69
2022/05/04 02:24:13;;;;;;;3.05;1.65;;;;;;;10.89;51.68;99088.27;1685772;85;21272;-72
2022/05/04 02:26:39;;;;;;;2.27;1.25;;;;;;;10.89;51.80;99086.93;1685249;85;20936;-71
2022/05/04 02:29:06;;;;;;;1.75;1.65;;;;;;;10.88;51.97;99094.08;1686571;85;20920;-72
2022/05/04 02:31:32;;;;;;;3.15;1.67;;;;;;;10.89;51.98;99094.91;1685404;84;20968;-69
2022/05/04 02:33:59;;;;;;;2.35;2.10;;;;;;;10.92;52.00;99098.55;1686411;85;21474;-70
2022/05/04 02:39:11;;;;;;;3.47;1.62;;;;;;;10.96;52.16;99094.00;1664061;85;21534;-70
2022/05/04 02:41:37;;;;;;;1.80;1.70;;;;;;;11.00;52.17;99108.59;1676659;85;20979;-72
2022/05/04 02:44:04;;;;;;;2.35;1.80;;;;;;;11.02;52.30;99103.94;1686499;85;21035;-73
2022/05/04 02:46:31;;;;;;;4.00;1.87;;;;;;;11.08;52.29;99107.17;1684556;85;21639;-71
2022/05/04 02:48:57;;;;;;;1.70;1.52;;;;;;;11.10;52.35;99109.67;1686264;85;21232;-71
2022/05/04 02:51:24;;;;;;;2.40;1.57;;;;;;;11.14;52.30;99113.11;1686270;85;21502;-73
2022/05/04 02:53:51;;;;;;;2.90;1.42;;;;;;;11.20;52.27;99109.39;1686451;85;20877;-71
2022/05/04 02:56:17;;;;;;;1.60;1.40;;;;;;;11.24;52.26;99116.03;1685730;85;21023;-71
2022/05/04 02:58:45;;;;;;;4.53;1.50;;;;;;;11.31;52.30;99120.94;1685466;85;20951;-72
2022/05/04 03:04:06;;;;;;;2.33;1.55;;;;;;;11.36;52.31;99118.05;1685090;84;21495;-72
2022/05/04 03:06:40;;;;;;;1.85;1.75;;;;;;;11.41;52.25;99121.48;1686331;85;21099;-72
2022/05/04 03:09:07;;;;;;;2.65;1.85;;;;;;;11.44;52.24;99128.61;1681573;84;21039;-73
2022/05/04 03:14:20;;;;;;;6.25;2.12;;;;;;;11.53;52.19;99138.64;1683327;85;21848;-69
2022/05/04 03:16:51;;;;;;;2.52;1.70;;;;;;;11.56;52.13;99143.60;1680604;85;20909;-72
2022/05/04 03:19:18;;;;;;;3.95;1.72;;;;;;;11.59;52.12;99145.41;1679175;85;20909;-70
2022/05/04 03:21:45;;;;;;;1.77;1.67;;;;;;;11.63;52.07;99147.17;1683881;85;21000;-70
2022/05/04 03:24:12;;;;;;;3.25;2.10;;;;;;;11.65;51.89;99145.98;1683986;85;21046;-68
2022/05/04 03:26:39;;;;;;;6.03;1.82;;;;;;;11.69;51.83;99155.80;1681204;85;21217;-71
2022/05/04 03:29:06;;;;;;;3.92;2.10;;;;;;;11.72;51.79;99160.27;1679194;85;20899;-71
2022/05/04 03:31:32;;;;;;;1.80;1.70;;;;;;;11.75;51.78;99153.73;1683884;85;21023;-72
2022/05/04 03:33:59;;;;;;;1.80;1.70;;;;;;;11.81;51.74;99163.63;1683911;85;20964;-71
2022/05/04 03:36:26;;;;;;;2.17;1.65;;;;;;;11.83;51.73;99173.62;1683949;85;21505;-71
2022/05/04 03:38:52;;;;;;;3.47;1.70;;;;;;;11.87;51.71;99170.06;1682536;85;21157;-68
2022/05/04 03:41:19;;;;;;;3.92;1.70;;;;;;;11.90;51.82;99176.36;1683843;85;20908;-72
2022/05/04 03:43:46;;;;;;;2.33;2.05;;;;;;;11.93;51.90;99174.16;1683847;85;20955;-73
2022/05/04 03:46:18;;;;;;;4.22;2.22;;;;;;;11.94;51.84;99177.66;1683945;85;21043;-72
2022/05/04 03:48:46;;;;;;;5.08;2.17;;;;;;;11.98;51.72;99182.93;1683471;85;21524;-72
2022/05/04 03:51:14;;;;;;;2.83;1.98;;;;;;;12.03;51.57;99185.86;1678004;85;21264;-70
2022/05/04 03:53:42;;;;;;;3.25;2.37;;;;;;;12.05;51.54;99189.99;1683660;85;20933;-70
2022/05/04 03:56:08;;;;;;;3.30;1.90;;;;;;;12.08;51.46;99183.45;1683989;85;21503;-74
2022/05/04 03:58:37;;;;;;;4.15;2.00;;;;;;;12.12;51.48;99193.56;1683991;85;20944;-71
2022/05/04 04:01:04;;;;;;;2.02;1.82;;;;;;;12.16;51.35;99194.85;1679774;85;21007;-73
2022/05/04 04:03:31;;;;;;;2.35;1.90;;;;;;;12.19;51.41;99198.48;1683423;85;21250;-72
2022/05/04 04:05:59;;;;;;;3.25;2.90;;;;;;;12.23;51.48;99198.41;1683829;85;20952;-68
2022/05/04 04:08:29;;;;;;;3.62;3.25;;;;;;;12.29;51.60;99196.34;1684049;84;20984;-71
2022/05/04 04:10:57;;;;;;;2.37;2.15;;;;;;;12.36;51.41;99201.73;1678957;85;21086;-71
2022/05/04 04:13:24;;;;;;;3.55;2.25;;;;;;;12.43;51.20;99201.83;1678730;85;21024;-72
2022/05/04 04:15:54;;;;;;;2.47;2.22;;;;;;;12.49;51.02;99199.22;1678420;85;21167;-70
2022/05/04 04:18:22;;;;;;;3.37;2.20;;;;;;;12.55;50.96;99200.30;1678644;85;20945;-71
2022/05/04 04:23:33;;;;;;;3.30;2.30;;;;;;;12.66;50.86;99209.98;1678316;85;21027;-72
2022/05/04 04:26:01;;;;;;;4.83;2.40;;;;;;;12.74;50.84;99210.36;1678705;85;21022;-73
2022/05/04 04:28:28;;;;;;;3.67;2.47;;;;;;;12.91;50.43;99211.24;1677170;85;21465;-72
2022/05/04 04:30:54;;;;;;;5.00;2.45;;;;;;;12.92;50.27;99216.91;1677673;85;20933;-73
2022/05/04 04:33:26;;;;;;;3.80;3.20;;;;;;;12.94;50.36;99216.70;1677250;85;21000;-73
2022/05/04 04:35:53;;;;;;;3.55;2.70;;;;;;;13.00;50.33;99214.62;1678689;85;21017;-70
2022/05/04 04:38:20;;;;;;;4.40;2.58;;;;;;;13.07;50.11;99212.85;1678685;85;20877;-67
2022/05/04 04:40:46;;;;;;;3.00;2.37;;;;;;;13.18;49.90;99211.00;1678236;85;21476;-72
2022/05/04 04:43:14;;;;;;;4.90;2.10;;;;;;;13.28;49.72;99222.17;1675833;85;21626;-72
2022/05/04 04:45:43;;;;;;;7.03;2.25;;;;;;;13.35;49.54;99215.53;1678941;85;21073;-72
2022/05/04 04:48:11;;;;;;;2.62;2.00;;;;;;;13.43;49.38;99218.89;1678709;85;21503;-70
2022/05/04 04:50:37;;;;;;;5.05;4.25;;;;;;;13.53;49.16;99222.58;1678379;85;21038;-72
2022/05/04 04:53:05;;;;;;;4.25;3.45;;;;;;;13.61;49.01;99227.75;1671854;85;21265;-68
2022/05/04 04:55:31;;;;;;;4.80;2.98;;;;;;;13.67;48.78;99223.47;1678697;85;21024;-71
2022/05/04 04:57:58;;;;;;;3.55;2.52;;;;;;;13.73;48.71;99228.04;1678779;85;21468;-68
2022/05/04 05:00:27;;;;;;;2.62;2.17;;;;;;;13.73;48.71;99232.88;1678939;84;21095;-71
2022/05/04 05:02:54;;;;;;;2.87;2.50;;;;;;;13.80;48.62;99225.72;1674025;85;21542;-70
2022/05/04 05:05:21;;;;;;;6.72;2.90;;;;;;;13.84;48.52;99235.02;1678577;85;21070;-73
2022/05/04 05:07:48;;;;;;;4.03;2.35;;;;;;;13.89;48.47;99234.42;1678543;85;21019;-73
2022/05/04 05:10:15;;;;;;;3.15;2.50;;;;;;;13.94;48.34;99230.64;1679850;84;21135;-69
2022/05/04 05:12:42;;;;;;;2.12;1.90;;;;;;;13.97;48.32;99239.61;1684108;85;21058;-71
2022/05/04 05:17:55;;;;;;;3.90;2.30;;;;;;;14.09;48.25;99239.34;1682777;85;22131;-73
2022/05/04 05:20:21;;;;;;;3.42;2.08;;;;;;;14.21;48.07;99239.09;1680924;85;20944;-71
2022/05/04 05:22:47;;;;;;;4.72;2.45;;;;;;;14.31;47.84;99230.23;1683180;85;20916;-73
2022/05/04 05:25:15;;;;;;;7.35;2.02;;;;;;;14.46;47.82;99232.23;1681264;84;21087;-73
2022/05/04 05:27:42;;;;;;;4.87;2.10;;;;;;;14.65;47.54;99235.47;1683531;85;20984;-71
2022/05/04 05:30:12;;;;;;;2.25;2.05;;;;;;;14.80;47.14;99233.98;1668896;85;21313;-71
2022/05/04 05:32:40;;;;;;;6.35;2.30;;;;;;;14.96;46.75;99240.80;1657025;85;20993;-67
2022/05/04 05:35:08;;;;;;;4.37;2.30;;;;;;;15.08;46.42;99242.67;1670467;85;20964;-73
2022/05/04 05:37:34;;;;;;;2.27;2.00;;;;;;;15.22;46.18;99243.51;1683964;84;21064;-73
2022/05/04 05:40:01;;;;;;;3.58;1.75;;;;;;;15.41;45.73;99245.34;1684054;85;21537;-72
2022/05/04 05:42:28;;;;;;;1.95;1.80;;;;;;;15.52;45.44;99251.47;1683375;85;21175;-72
2022/05/04 05:44:55;;;;;;;3.65;1.87;;;;;;;15.61;45.30;99256.11;1679978;85;20983;-70
2022/05/04 05:47:22;;;;;;;2.92;1.75;;;;;;;15.67;45.22;99253.41;1684093;83;20892;-69
2022/05/04 05:49:48;;;;;;;6.50;2.30;;;;;;;15.79;45.05;99259.80;1682109;85;21040;-67
2022/05/04 05:52:15;;;;;;;3.25;2.40;;;;;;;15.90;44.75;99249.75;1682374;84;20991;-69
2022/05/04 05:54:42;;;;;;;4.58;2.67;;;;;;;15.98;44.39;99256.78;1681924;83;21274;-69
2022/05/04 05:57:08;;;;;;;3.37;1.85;;;;;;;15.96;44.33;99255.63;1687657;83;20960;-68
2022/05/04 05:59:35;;;;;;;2.50;1.92;;;;;;;16.00;44.33;99254.19;1690142;83;21022;-68
2022/05/04 06:02:02;;;;;;;2.17;1.80;;;;;;;16.10;44.04;99259.11;1683397;85;21072;-68
2022/05/04 06:04:29;;;;;;;2.52;1.92;;;;;;;16.20;43.84;99255.46;1683616;85;21071;-68
2022/05/04 06:06:55;;;;;;;3.65;2.00;;;;;;;16.44;43.78;99256.61;1683443;85;22139;-69
2022/05/04 06:09:22;;;;;;;3.72;1.60;;;;;;;16.82;43.27;99258.82;1683319;85;21059;-67
2022/05/04 06:11:48;;;;;;;2.45;2.08;;;;;;;17.19;42.82;99253.10;1687471;84;21050;-69
2022/05/04 06:14:15;;;;;;;3.45;1.77;;;;;;;17.50;42.13;99260.30;1656940;85;21051;-68
2022/05/04 06:16:42;;;;;;;2.67;2.30;;;;;;;17.86;41.65;99263.93;1651944;85;20983;-69
2022/05/04 06:19:09;;;;;;;3.75;1.90;;;;;;;18.18;40.99;99265.98;1652016;85;21463;-70
2022/05/04 06:21:35;;;;;;;2.90;1.72;;;;;;;18.56;40.08;99264.95;1652047;85;21035;-71
2022/05/04 06:24:02;;;;;;;4.37;1.87;;;;;;;18.94;38.99;99260.90;1651853;85;20983;-71
2022/05/04 06:26:28;;;;;;;2.15;1.65;;;;;;;19.44;38.09;99265.98;1656620;85;21018;-68
2022/05/04 06:28:55;;;;;;;2.80;1.40;;;;;;;20.17;37.36;99263.64;1677943;85;21028;-70
2022/05/04 06:34:07;;;;;;;4.80;2.12;;;;;;;21.42;35.38;99254.50;1668961;85;21061;-72
2022/05/04 06:36:39;;;;;;;7.55;1.92;;;;;;;22.02;34.29;99263.30;1677377;85;21183;-70
2022/05/04 06:39:08;;;;;;;4.53;2.37;;;;;;;22.52;33.31;99255.02;1668506;85;21503;-73
2022/05/04 06:41:36;;;;;;;2.35;1.72;;;;;;;22.92;32.63;99260.09;1671543;85;21032;-71
2022/05/04 06:44:05;;;;;;;4.05;1.85;;;;;;;23.29;31.91;99259.13;1672804;85;21861;-70
2022/05/04 06:46:32;;;;;;;2.60;2.17;;;;;;;23.58;31.12;99256.96;1668003;85;21016;-69
2022/05/04 06:48:58;;;;;;;4.58;2.05;;;;;;;23.71;30.70;99252.45;1669285;85;22500;-70
2022/05/04 06:51:24;;;;;;;4.80;2.05;;;;;;;24.17;30.25;99252.21;1667718;85;21044;-68
2022/05/04 06:53:52;;;;;;;3.17;1.70;;;;;;;24.55;29.59;99255.13;1671444;85;21028;-70
2022/05/04 06:56:18;;;;;;;2.62;2.00;;;;;;;25.01;28.89;99256.09;1668387;85;21265;-71
2022/05/04 06:58:45;;;;;;;4.20;1.87;;;;;;;25.61;28.10;99260.27;1659486;85;21510;-70
2022/05/04 07:01:12;;;;;;;5.35;2.10;;;;;;;26.17;27.39;99257.50;1672547;85;20941;-69
2022/05/04 07:03:39;;;;;;;4.47;2.15;;;;;;;26.84;26.78;99263.25;1678794;84;21039;-70
2022/05/04 07:06:06;;;;;;;4.03;3.33;;;;;;;27.57;25.72;99252.40;1673704;84;21020;-69
2022/05/04 07:08:33;;;;;;;5.67;2.72;;;;;;;28.22;25.12;99256.43;1672143;84;22766;-68
2022/05/04 07:11:00;;;;;;;2.17;1.57;;;;;;;28.92;24.42;99256.12;1672106;84;21032;-67
2022/05/04 07:13:27;;;;;;;4.45;1.95;;;;;;;29.61;23.49;99253.17;1679855;85;21007;-71
2022/05/04 07:15:55;;;;;;;4.22;2.35;;;;;;;29.99;22.53;99246.48;1700350;83;21012;-70
2022/05/04 07:18:21;;;;;;;7.78;2.90;;;;;;;30.25;22.17;99253.12;1691611;84;21581;-69
2022/05/04 07:20:48;;;;;;;5.87;2.67;;;;;;;30.49;21.90;99251.02;1674574;84;21282;-69
2022/05/04 07:23:15;;;;;;;2.12;1.32;;;;;;;30.79;21.33;99252.29;1691447;84;20980;-68
2022/05/04 07:25:43;;;;;;;5.05;1.42;;;;;;;31.27;20.82;99245.73;1691984;84;21127;-69
2022/05/04 07:28:09;;;;;;;2.50;1.52;;;;;;;31.81;19.90;99250.77;1692197;84;21042;-70
2022/05/04 07:30:36;;;;;;;1.60;1.32;;;;;;;32.08;19.36;99249.22;1692093;84;21046;-71
2022/05/04 07:33:03;;;;;;;3.60;1.47;;;;;;;32.34;19.17;99257.03;1692259;84;21261;-70
2022/05/04 07:35:29;;;;;;;5.15;1.37;;;;;;;32.83;17.73;99256.70;1692046;84;21020;-69
2022/05/04 07:37:56;;;;;;;3.40;1.30;;;;;;;32.56;17.25;99252.03;1692064;84;21498;-70
2022/05/04 07:43:07;;;;;;;1.98;1.00;;;;;;;32.88;15.75;99252.98;1692327;84;21064;-69
2022/05/04 07:45:34;;;;;;;7.25;2.47;;;;;;;32.62;14.85;99254.30;1692139;84;21398;-67
2022/05/04 07:48:01;;;;;;;4.10;2.75;;;;;;;32.56;14.23;99263.87;1692086;84;21005;-71
2022/05/04 07:50:28;;;;;;;1.95;0.80;;;;;;;32.60;13.98;99268.97;1692123;84;21411;-69
2022/05/04 07:52:55;;;;;;;0.82;0.78;;;;;;;32.52;13.46;99261.48;1691993;84;21525;-68
2022/05/04 07:55:21;;;;;;;1.67;0.60;;;;;;;32.43;13.52;99266.14;1692122;84;21486;-70
2022/05/04 07:57:49;;;;;;;1.20;0.72;;;;;;;32.50;13.45;99259.59;1692121;84;21992;-70
2022/05/04 08:05:46;;;;;;;14.10;1.30;;;;;;;33.16;12.33;99254.92;1692036;84;21489;-68
2022/05/04 08:08:12;;;;;;;2.72;1.30;;;;;;;32.74;12.83;99262.78;1692060;84;21647;-70
2022/05/04 08:10:40;;;;;;;4.25;2.42;;;;;;;32.53;12.90;99265.06;1692163;84;21362;-70
2022/05/04 08:13:07;;;;;;;4.58;2.35;;;;;;;32.64;13.33;99275.44;1688634;85;21027;-71
2022/05/04 08:15:34;;;;;;;3.72;2.35;;;;;;;32.73;13.41;99267.22;1688534;85;21012;-70
2022/05/04 08:18:02;;;;;;;2.75;1.45;;;;;;;32.88;13.22;99258.48;1688563;85;20936;-69
2022/05/04 08:20:29;;;;;;;4.03;1.60;;;;;;;33.08;13.05;99266.74;1688624;85;20944;-70
2022/05/04 08:22:59;;;;;;;2.90;0.93;;;;;;;33.27;12.72;99262.52;1688512;85;21815;-68
2022/05/04 08:25:26;;;;;;;5.00;1.00;;;;;;;33.24;12.70;99266.52;1688441;85;20916;-70
2022/05/04 08:27:53;;;;;;;1.25;0.70;;;;;;;33.08;12.68;99266.19;1688541;85;21573;-70
2022/05/04 08:30:20;;;;;;;4.42;0.68;;;;;;;33.00;12.82;99274.40;1688529;85;20920;-70
2022/05/04 08:32:48;;;;;;;1.32;0.60;;;;;;;33.14;11.95;99271.76;1688546;85;20920;-70
2022/05/04 08:35:15;;;;;;;1.85;0.85;;;;;;;33.04;11.73;99273.98;1688548;85;21163;-69
2022/05/04 08:37:42;;;;;;;1.85;0.80;;;;;;;32.95;11.80;99275.38;1688457;85;20904;-70
2022/05/04 08:40:10;;;;;;;3.67;0.95;;;;;;;32.78;11.95;99272.01;1663348;85;20972;-70
2022/05/04 08:42:44;;;;;;;3.12;1.00;;;;;;;32.86;12.31;99275.34;1688671;85;21051;-69
2022/05/04 08:45:12;;;;;;;2.05;0.80;;;;;;;33.34;12.14;99278.59;1688727;85;20900;-70
2022/05/04 08:47:40;;;;;;;1.37;0.70;;;;;;;34.03;11.49;99277.37;1689183;85;21317;-69
2022/05/04 08:50:15;;;;;;;6.33;1.10;;;;;;;33.36;11.64;99274.38;1688749;85;20980;-70
2022/05/04 08:52:54;;;;;;;;;;;;;;;31.30;12.31;99286.89;1691234;85;21075;-70
2022/05/04 08:55:13;;;;;;;2.85;0.70;;;;;;;31.25;12.69;99293.33;1688596;85;20495;-72
2022/05/04 08:57:41;;;;;;;3.00;0.95;;;;;;;31.40;12.83;99280.59;1688769;85;21026;-69
2022/05/04 09:00:10;;;;;;;2.60;0.47;;;;;;;31.82;12.87;99276.56;1688866;85;21167;-69
2022/05/04 09:02:38;;;;;;;1.42;1.12;;;;;;;32.26;12.62;99275.13;1688795;85;21011;-70
2022/05/04 09:05:21;;;;;;;7.90;1.52;;;;;;;32.66;12.42;99283.41;1688621;85;21075;-71
2022/05/04 09:07:50;;;;;;;3.00;0.68;;;;;;;33.22;12.27;99280.59;1688931;85;21460;-69
2022/05/04 09:10:23;;;;;;;1.87;0.65;;;;;;;33.85;11.66;99286.83;1688890;84;21051;-69
2022/05/04 09:12:52;;;;;;;3.45;0.80;;;;;;;34.38;11.31;99275.91;1670421;84;21466;-69
2022/05/04 09:15:21;;;;;;;1.65;0.80;;;;;;;34.74;11.17;99285.33;1637972;86;20938;-71
2022/05/04 09:17:56;;;;;;;2.85;0.70;;;;;;;35.27;10.82;99283.30;1670307;84;20952;-69
2022/05/04 09:23:12;;;;;;;1.80;0.90;;;;;;;33.33;11.46;99287.98;1670411;86;21561;-70
2022/05/04 09:25:40;;;;;;;3.55;0.88;;;;;;;32.88;11.81;99279.96;1670310;86;21277;-70
2022/05/04 09:28:14;;;;;;;2.72;1.00;;;;;;;31.84;12.39;99289.98;1670416;86;21507;-70
2022/05/04 09:30:49;;;;;;;2.10;0.80;;;;;;;30.99;12.85;99298.58;1670359;86;21070;-69
2022/05/04 09:33:28;;;;;;;1.55;1.00;;;;;;;30.98;12.94;99294.75;1670503;85;21582;-70
2022/05/04 09:35:57;;;;;;;3.20;1.10;;;;;;;29.58;14.02;99297.07;1661993;86;20952;-67
2022/05/04 09:46:50;;;;;;;2.55;1.10;;;;;;;31.00;13.75;99298.81;1670672;86;20940;-69
2022/05/04 09:49:28;;;;;;;0.90;0.90;;;;;;;30.01;14.41;99288.70;1670324;86;20995;-69
2022/05/04 09:51:55;;;;;;;1.47;0.80;;;;;;;29.07;14.96;99294.81;1670304;85;21239;-71
2022/05/04 09:54:23;;;;;;;2.05;1.20;;;;;;;28.09;15.54;99297.59;1670280;85;21015;-68
2022/05/04 09:56:59;;;;;;;5.30;1.50;;;;;;;27.22;15.92;99302.59;1670372;86;20932;-71
2022/05/04 09:59:29;;;;;;;;;;;;;;;26.42;16.45;99300.22;1672606;85;20959;-69
2022/05/04 10:01:56;;;;;;;3.30;1.57;;;;;;;25.84;17.15;99297.02;1670398;85;20087;-69
2022/05/04 10:04:25;;;;;;;3.80;1.12;;;;;;;25.20;17.91;99300.78;1670282;86;21274;-69
2022/05/04 10:06:53;;;;;;;2.87;0.95;;;;;;;24.52;18.53;99301.88;1670207;85;20941;-68
2022/05/04 10:09:21;;;;;;;3.17;1.00;;;;;;;24.03;18.97;99303.19;1670528;85;20960;-69
2022/05/04 10:11:53;;;;;;;10.95;1.22;;;;;;;23.87;19.31;99303.62;1670094;84;21537;-69
2022/05/04 10:14:17;;;;;;;4.42;0.98;;;;;;;23.81;19.48;99296.50;1670196;85;21495;-69
2022/05/04 10:17:11;;;;;;;4.12;1.05;;;;;;;23.82;19.61;99298.98;1670386;86;21187;-70
2022/05/04 10:19:57;;;;;;;1.42;0.88;;;;;;;23.89;19.67;99300.09;1670268;86;20956;-70
2022/05/04 10:22:31;;;;;;;6.37;1.30;;;;;;;23.98;19.46;99293.65;1670318;85;21552;-69
2022/05/04 10:25:00;;;;;;;9.75;2.12;;;;;;;24.02;19.26;99301.54;1654997;85;21437;-70
2022/05/04 10:27:28;;;;;;;4.53;1.70;;;;;;;23.83;19.27;99301.95;1643308;86;21094;-70
2022/05/04 10:32:51;;;;;;;6.37;1.42;;;;;;;23.44;19.95;99303.81;1670555;85;20876;-70
2022/05/04 10:35:40;;;;;;;6.17;1.15;;;;;;;23.14;20.17;99310.55;1670309;86;20965;-69
2022/05/04 10:38:11;;;;;;;2.35;1.10;;;;;;;22.96;20.25;99314.96;1670380;86;21055;-69
2022/05/04 10:41:00;;;;;;;19.65;1.60;;;;;;;22.60;20.57;99318.28;1670502;85;21463;-69
2022/05/04 10:43:38;;;;;;;5.50;1.10;;;;;;;22.29;20.94;99317.59;1639426;86;21357;-68
2022/05/04 10:46:09;;;;;;;1.77;1.17;;;;;;;22.10;21.12;99317.88;1649076;85;21030;-68
2022/05/04 10:48:43;;;;;;;4.40;1.02;;;;;;;21.89;21.13;99320.52;1671864;84;21051;-69
2022/05/04 10:51:24;;;;;;;5.58;1.50;;;;;;;21.65;21.58;99317.12;1643369;86;20928;-70
2022/05/04 10:54:00;;;;;;;1.90;1.02;;;;;;;21.65;21.58;99317.12;1644167;85;20952;-69
2022/05/04 10:56:28;;;;;;;6.83;1.10;;;;;;;21.63;21.60;99307.08;1689085;84;21290;-68
2022/05/04 10:59:01;;;;;;;2.02;1.10;;;;;;;21.71;21.49;99312.08;1670505;85;21020;-68
2022/05/04 11:01:34;;;;;;;2.40;1.10;;;;;;;21.82;21.80;99311.72;1670353;86;21015;-70
2022/05/04 11:04:15;;;;;;;2.80;1.00;;;;;;;21.83;21.81;99310.62;1670554;86;21087;-69
2022/05/04 11:06:55;;;;;;;3.42;1.10;;;;;;;21.83;21.81;99310.62;1670213;85;21541;-69
2022/05/04 11:09:25;;;;;;;1.80;0.98;;;;;;;21.89;21.98;99309.16;1670528;86;21178;-68
2022/05/04 11:11:55;;;;;;;1.37;0.80;;;;;;;22.01;21.80;99315.28;1670174;84;20908;-69
2022/05/04 11:14:22;;;;;;;4.50;1.45;;;;;;;22.09;21.58;99312.69;1653806;86;20912;-70
2022/05/04 11:16:52;;;;;;;3.20;1.20;;;;;;;22.07;21.64;99311.59;1644147;86;20896;-68
2022/05/04 11:19:18;;;;;;;0.55;0.55;;;;;;;22.05;21.85;99315.63;1644200;86;20988;-69
2022/05/04 11:21:45;;;;;;;2.08;1.37;;;;;;;22.05;21.85;99315.63;1644128;86;22259;-69
2022/05/04 11:24:14;;;;;;;4.10;1.00;;;;;;;22.03;21.61;99317.77;1644158;86;20916;-69
2022/05/04 11:26:49;;;;;;;4.85;1.42;;;;;;;22.01;21.40;99316.64;1644109;86;20928;-68
2022/05/04 11:29:20;;;;;;;2.50;1.17;;;;;;;21.97;21.58;99317.39;1661827;85;20972;-69
2022/05/04 11:31:57;;;;;;;7.42;1.50;;;;;;;21.85;21.74;99316.08;1670299;86;20960;-67
2022/05/04 11:34:37;;;;;;;4.10;1.17;;;;;;;21.72;21.83;99311.00;1670219;85;22243;-67
2022/05/04 11:37:07;;;;;;;2.62;1.10;;;;;;;21.64;22.02;99316.81;1670384;85;21357;-67
2022/05/04 11:39:36;;;;;;;7.25;1.30;;;;;;;21.61;22.03;99315.98;1670343;86;21500;-70
2022/05/04 11:42:03;;;;;;;6.97;1.27;;;;;;;21.64;22.13;99308.70;1670228;86;21007;-69
2022/05/04 11:44:30;;;;;;;2.70;0.93;;;;;;;21.73;22.24;99316.71;1670301;86;20944;-70
2022/05/04 11:47:00;;;;;;;5.83;1.32;;;;;;;21.83;22.38;99313.34;1670200;86;21790;-69
2022/05/04 11:49:32;;;;;;;2.80;1.70;;;;;;;21.93;22.33;99315.70;1670128;86;20936;-69
2022/05/04 11:51:59;;;;;;;8.48;1.40;;;;;;;21.97;22.24;99321.45;1670298;86;20963;-70
2022/05/04 11:54:26;;;;;;;4.10;0.93;;;;;;;22.01;22.01;99315.28;1670296;86;20948;-70
2022/05/04 11:56:53;;;;;;;3.55;1.02;;;;;;;21.98;21.75;99317.13;1670218;86;20980;-68
2022/05/04 11:59:20;;;;;;;16.25;1.75;;;;;;;21.79;21.80;99317.09;1670161;86;22059;-68
2022/05/04 12:01:46;;;;;;;16.35;1.90;;;;;;;21.79;21.80;99317.09;1670130;86;20992;-68
2022/05/04 12:04:13;;;;;;;3.40;1.10;;;;;;;21.56;21.91;99315.89;1670304;86;21043;-68
2022/05/04 12:06:41;;;;;;;4.12;0.80;;;;;;;21.41;21.99;99313.73;1653838;86;20928;-68
2022/05/04 12:09:07;;;;;;;1.00;0.70;;;;;;;21.31;22.20;99313.55;1647795;85;21542;-70
2022/05/04 12:11:34;;;;;;;2.17;0.80;;;;;;;21.24;22.37;99316.95;1644147;86;21267;-69
2022/05/04 12:14:02;;;;;;;3.17;0.88;;;;;;;21.20;22.48;99309.55;1644331;86;20975;-70
2022/05/04 12:16:29;;;;;;;3.22;0.93;;;;;;;21.12;22.65;99311.31;1642006;86;20999;-68
2022/05/04 12:18:57;;;;;;;0.95;0.70;;;;;;;21.12;22.72;99309.96;1670112;86;21007;-69
2022/05/04 12:21:24;;;;;;;2.30;0.80;;;;;;;21.08;22.61;99307.44;1670243;86;21014;-70